Time;durP1;ratioP1;P1;durP2;ratioP2;P2;SDS_P1;SDS_P2;PMS_P1;PMS_P2;Temp;Humidity;BMP_temperature;BMP_pressure;BME280_temperature;BME280_humidity;BME280_pressure;Samples;Min_cycle;Max_cycle;Signal;HPM_P1;HPM_P2
2022/10/23 00:01:27;;;;;;;;;;;10.90;99.90;;;;;;5087942;28;20048;-68
2022/10/23 00:03:59;;;;;;;11.20;1.30;;;10.90;99.90;;;;;;5076032;28;19920;-69
2022/10/23 00:06:26;;;;;;;10.32;1.50;;;10.90;99.90;;;;;;5079543;28;20040;-69
2022/10/23 00:08:52;;;;;;;6.95;1.40;;;11.00;99.90;;;;;;5077097;28;20715;-69
2022/10/23 00:11:20;;;;;;;;;;;10.90;99.90;;;;;;5080874;28;20028;-69
2022/10/23 00:13:48;;;;;;;12.38;1.23;;;11.00;99.90;;;;;;5076711;28;20010;-70
2022/10/23 00:16:14;;;;;;;8.82;1.50;;;10.90;99.90;;;;;;5080278;28;20071;-69
2022/10/23 00:18:39;;;;;;;;;;;11.00;99.90;;;;;;5065231;28;20086;-69
2022/10/23 00:21:08;;;;;;;9.65;1.20;;;10.90;99.90;;;;;;5066824;28;19994;-70
2022/10/23 00:23:34;;;;;;;4.32;1.10;;;11.00;99.90;;;;;;5060996;28;20076;-69
2022/10/23 00:25:59;;;;;;;;;;;10.90;99.90;;;;;;5065748;28;20096;-69
2022/10/23 00:28:25;;;;;;;9.18;1.00;;;10.90;99.90;;;;;;5062892;28;20346;-70
2022/10/23 00:30:51;;;;;;;;;;;10.90;99.90;;;;;;5060906;28;20036;-69
2022/10/23 00:33:17;;;;;;;14.18;1.55;;;10.90;99.90;;;;;;5066087;28;20003;-69
2022/10/23 00:35:43;;;;;;;11.43;1.85;;;10.90;99.90;;;;;;5066449;28;20050;-69
2022/10/23 00:38:09;;;;;;;;;;;10.80;99.90;;;;;;5065226;28;20424;-69
2022/10/23 00:40:36;;;;;;;6.40;1.30;;;10.80;99.90;;;;;;5064525;28;20341;-70
2022/10/23 00:43:02;;;;;;;10.48;1.98;;;10.80;99.90;;;;;;5066108;28;20136;-69
2022/10/23 00:45:32;;;;;;;;;;;10.80;99.90;;;;;;5069203;28;20055;-70
2022/10/23 00:48:01;;;;;;;6.60;1.10;;;10.80;99.90;;;;;;5062936;28;19966;-69
2022/10/23 00:50:30;;;;;;;10.30;1.65;;;10.80;99.90;;;;;;5067005;28;20412;-70
2022/10/23 00:52:56;;;;;;;7.28;1.60;;;10.80;99.90;;;;;;5062809;28;20033;-68
2022/10/23 00:55:25;;;;;;;7.00;1.40;;;10.80;99.90;;;;;;5064406;28;20044;-69
2022/10/23 00:57:51;;;;;;;10.95;1.45;;;10.80;99.90;;;;;;5065058;28;20672;-70
2022/10/23 01:00:26;;;;;;;4.38;1.23;;;10.70;99.90;;;;;;5061544;28;20041;-70
2022/10/23 01:02:53;;;;;;;12.05;1.25;;;10.70;99.90;;;;;;5061309;28;20566;-69
2022/10/23 01:05:25;;;;;;;4.93;1.30;;;10.70;99.90;;;;;;5064873;28;20036;-69
2022/10/23 01:08:00;;;;;;;5.07;1.45;;;10.70;99.90;;;;;;5064188;28;20045;-69
2022/10/23 01:10:54;;;;;;;7.72;1.65;;;10.70;99.90;;;;;;5063957;28;20802;-69
2022/10/23 01:13:29;;;;;;;3.47;1.20;;;10.60;99.90;;;;;;5057568;28;20047;-69
2022/10/23 01:16:21;;;;;;;6.25;2.22;;;10.60;99.90;;;;;;5065926;28;20095;-69
2022/10/23 01:18:55;;;;;;;9.30;1.50;;;10.60;99.90;;;;;;5061344;28;20518;-71
2022/10/23 01:21:33;;;;;;;11.05;1.75;;;10.60;99.90;;;;;;5058088;28;20051;-70
2022/10/23 01:24:11;;;;;;;9.45;2.28;;;10.60;99.90;;;;;;5057899;28;20055;-70
2022/10/23 01:26:54;;;;;;;13.20;2.10;;;10.60;99.90;;;;;;5065371;28;20782;-69
2022/10/23 01:29:42;;;;;;;13.10;2.00;;;10.60;99.90;;;;;;5062683;28;20075;-69
2022/10/23 01:32:23;;;;;;;6.43;1.73;;;10.50;99.90;;;;;;5062308;28;20051;-70
2022/10/23 01:35:10;;;;;;;12.95;1.88;;;10.60;99.90;;;;;;5062486;28;20728;-69
2022/10/23 01:37:42;;;;;;;7.05;1.70;;;10.50;99.90;;;;;;5058520;28;20202;-70
2022/10/23 01:40:28;;;;;;;7.50;1.77;;;10.60;99.90;;;;;;5063919;28;20444;-69
2022/10/23 01:43:00;;;;;;;7.53;1.98;;;10.50;99.90;;;;;;5061110;28;20037;-69
2022/10/23 01:45:47;;;;;;;20.75;3.17;;;10.50;99.90;;;;;;5065115;28;20531;-69
2022/10/23 01:48:18;;;;;;;11.70;1.70;;;10.50;99.90;;;;;;5054464;28;20040;-69
2022/10/23 01:50:45;;;;;;;7.10;1.80;;;10.50;99.90;;;;;;5062054;28;20123;-69
2022/10/23 01:53:11;;;;;;;7.32;1.80;;;10.50;99.90;;;;;;5060332;28;20040;-69
2022/10/23 01:55:38;;;;;;;;;;;10.50;99.90;;;;;;5066557;28;20097;-69
2022/10/23 01:58:07;;;;;;;9.88;1.55;;;10.50;99.90;;;;;;5059719;28;19920;-69
2022/10/23 02:00:33;;;;;;;11.98;1.63;;;10.50;99.90;;;;;;5063595;28;20073;-69
2022/10/23 02:03:03;;;;;;;10.82;2.08;;;10.50;99.90;;;;;;5060079;28;20056;-69
2022/10/23 02:05:29;;;;;;;16.33;1.75;;;10.60;99.90;;;;;;5066100;28;20934;-68
2022/10/23 02:07:56;;;;;;;13.35;3.03;;;10.60;99.90;;;;;;5063517;28;20090;-69
2022/10/23 02:10:48;;;;;;;7.70;1.80;;;10.60;99.90;;;;;;5062802;28;20435;-69
2022/10/23 02:13:40;;;;;;;10.88;1.70;;;10.60;99.90;;;;;;5055462;28;20060;-69
2022/10/23 02:16:35;;;;;;;8.15;1.63;;;10.60;99.90;;;;;;5053931;28;20107;-69
2022/10/23 02:19:41;;;;;;;12.77;1.40;;;10.60;99.90;;;;;;5059086;28;20043;-69
2022/10/23 02:22:36;;;;;;;9.52;1.33;;;10.50;99.90;;;;;;5059006;28;20041;-69
2022/10/23 02:25:22;;;;;;;11.70;2.05;;;10.60;99.90;;;;;;5056051;28;20074;-69
2022/10/23 02:27:54;;;;;;;7.00;1.25;;;10.60;99.90;;;;;;5062455;28;20072;-69
2022/10/23 02:30:20;;;;;;;10.60;1.60;;;10.50;99.90;;;;;;5058182;28;20037;-69
2022/10/23 02:32:47;;;;;;;;;;;10.60;99.90;;;;;;5063553;28;20770;-70
2022/10/23 02:35:13;;;;;;;13.00;1.55;;;10.50;99.90;;;;;;5065580;28;20387;-69
2022/10/23 02:37:39;;;;;;;9.88;1.60;;;10.60;99.90;;;;;;5063113;28;20115;-69
2022/10/23 02:40:06;;;;;;;;;;;10.60;99.90;;;;;;5062239;28;20127;-69
2022/10/23 02:42:55;;;;;;;8.90;1.25;;;10.60;99.90;;;;;;5062903;28;20046;-68
2022/10/23 02:45:43;;;;;;;8.15;1.33;;;10.60;99.90;;;;;;5059461;28;20048;-69
2022/10/23 02:48:19;;;;;;;10.82;1.75;;;10.60;99.90;;;;;;5062973;28;20696;-70
2022/10/23 02:51:01;;;;;;;9.55;1.50;;;10.60;99.90;;;;;;5060934;28;20064;-69
2022/10/23 02:53:47;;;;;;;8.45;2.00;;;10.50;99.90;;;;;;5058097;28;20169;-69
2022/10/23 02:56:22;;;;;;;6.15;1.65;;;10.40;99.90;;;;;;5063832;28;20044;-69
2022/10/23 02:59:08;;;;;;;5.80;2.00;;;10.40;99.90;;;;;;5063786;28;20206;-70
2022/10/23 03:01:55;;;;;;;15.13;2.28;;;10.40;99.90;;;;;;5057238;28;20041;-70
2022/10/23 03:04:24;;;;;;;7.38;2.25;;;10.40;99.90;;;;;;5062509;28;20044;-70
2022/10/23 03:06:51;;;;;;;8.75;1.38;;;10.50;99.90;;;;;;5062729;28;20098;-69
2022/10/23 03:09:17;;;;;;;7.60;1.58;;;10.50;99.90;;;;;;5056049;28;20661;-70
2022/10/23 03:11:42;;;;;;;;;;;10.50;99.90;;;;;;5062430;28;20115;-70
2022/10/23 03:14:10;;;;;;;9.32;1.42;;;10.50;99.90;;;;;;5060177;28;20019;-69
2022/10/23 03:16:35;;;;;;;9.18;1.42;;;10.60;99.90;;;;;;5062718;28;20752;-71
2022/10/23 03:19:01;;;;;;;;;;;10.60;99.90;;;;;;5059397;28;20037;-71
2022/10/23 03:21:27;;;;;;;11.30;1.48;;;10.60;99.90;;;;;;5063754;28;19916;-69
2022/10/23 03:23:52;;;;;;;;;;;10.50;99.90;;;;;;5054526;28;20153;-69
2022/10/23 03:26:18;;;;;;;10.02;1.75;;;10.60;99.90;;;;;;5063855;28;19980;-69
2022/10/23 03:28:43;;;;;;;;;;;10.60;99.90;;;;;;5059506;28;20044;-70
2022/10/23 03:31:09;;;;;;;7.20;1.48;;;10.60;99.90;;;;;;5056871;28;19932;-69
2022/10/23 03:33:35;;;;;;;;;;;10.60;99.90;;;;;;5060892;28;20041;-69
2022/10/23 03:36:01;;;;;;;9.00;1.60;;;10.60;99.90;;;;;;5062659;28;19916;-69
2022/10/23 03:38:27;;;;;;;4.75;1.45;;;10.60;99.90;;;;;;5062571;28;20095;-69
2022/10/23 03:40:52;;;;;;;;;;;10.70;99.90;;;;;;5064625;28;20068;-69
2022/10/23 03:43:19;;;;;;;9.68;1.58;;;10.70;99.90;;;;;;5059710;28;20398;-69
2022/10/23 03:45:44;;;;;;;8.27;1.25;;;10.80;99.90;;;;;;5058386;28;20120;-70
2022/10/23 03:48:10;;;;;;;;;;;10.80;99.90;;;;;;5050260;28;20149;-71
2022/10/23 03:50:36;;;;;;;9.77;1.52;;;10.70;99.90;;;;;;5061460;28;19919;-69
2022/10/23 03:53:01;;;;;;;;;;;10.70;99.90;;;;;;5063589;28;20074;-68
2022/10/23 03:55:27;;;;;;;5.55;2.00;;;10.70;99.90;;;;;;5066096;28;20749;-70
2022/10/23 03:57:53;;;;;;;11.90;1.67;;;10.70;99.90;;;;;;5058022;28;20091;-69
2022/10/23 04:00:19;;;;;;;;;;;10.70;99.90;;;;;;5065996;28;20048;-69
2022/10/23 04:02:44;;;;;;;4.63;1.70;;;10.70;99.90;;;;;;5062914;28;19916;-69
2022/10/23 04:05:10;;;;;;;;;;;10.70;99.90;;;;;;5064706;28;20043;-68
2022/10/23 04:07:36;;;;;;;9.30;1.90;;;10.80;99.90;;;;;;5066545;28;19931;-69
2022/10/23 04:10:03;;;;;;;;;;;10.80;99.90;;;;;;5066201;28;20044;-69
2022/10/23 04:12:28;;;;;;;5.60;1.40;;;10.80;99.90;;;;;;5065812;28;19920;-69
2022/10/23 04:14:54;;;;;;;;;;;10.80;99.90;;;;;;5062388;28;20461;-69
2022/10/23 04:17:19;;;;;;;9.98;1.40;;;10.90;99.90;;;;;;5069006;28;19917;-69
2022/10/23 04:19:45;;;;;;;;;;;10.80;99.90;;;;;;5079388;28;20044;-69
2022/10/23 04:22:10;;;;;;;7.38;2.30;;;10.80;99.90;;;;;;5063583;28;19920;-69
2022/10/23 04:24:36;;;;;;;;;;;10.80;99.90;;;;;;5062235;28;20146;-68
2022/10/23 04:27:02;;;;;;;13.80;1.70;;;10.80;99.90;;;;;;5065310;28;19963;-70
2022/10/23 04:29:30;;;;;;;;;;;10.80;99.90;;;;;;5064241;28;20166;-69
2022/10/23 04:31:56;;;;;;;7.50;1.75;;;10.80;99.90;;;;;;5061906;28;19924;-69
2022/10/23 04:34:21;;;;;;;;;;;10.90;99.90;;;;;;5060525;28;20040;-69
2022/10/23 04:36:47;;;;;;;6.63;1.80;;;10.80;99.90;;;;;;5062819;28;19924;-70
2022/10/23 04:39:13;;;;;;;;;;;10.90;99.90;;;;;;5077683;28;20120;-71
2022/10/23 04:41:39;;;;;;;8.70;1.30;;;10.90;99.90;;;;;;5072614;28;20061;-69
2022/10/23 04:44:05;;;;;;;;;;;10.90;99.90;;;;;;5064141;28;20127;-69
2022/10/23 04:46:30;;;;;;;4.63;1.60;;;10.90;99.90;;;;;;5057634;28;20422;-68
2022/10/23 04:48:56;;;;;;;;;;;10.90;99.90;;;;;;5069040;28;20432;-68
2022/10/23 04:51:21;;;;;;;11.55;1.60;;;10.90;99.90;;;;;;5080330;28;20010;-66
2022/10/23 04:53:47;;;;;;;;;;;10.90;99.90;;;;;;5064630;28;20041;-66
2022/10/23 04:56:14;;;;;;;9.00;1.60;;;10.90;99.90;;;;;;5066094;28;19920;-66
2022/10/23 04:58:41;;;;;;;7.10;1.95;;;10.90;99.90;;;;;;5060751;28;20544;-66
2022/10/23 05:01:09;;;;;;;4.82;1.33;;;11.00;99.90;;;;;;5064804;28;20063;-65
2022/10/23 05:03:36;;;;;;;12.98;1.60;;;11.10;99.90;;;;;;5062027;28;20048;-67
2022/10/23 05:06:02;;;;;;;13.23;3.28;;;11.20;99.90;;;;;;5044915;28;20103;-64
2022/10/23 05:08:28;;;;;;;6.40;1.55;;;11.20;99.90;;;;;;5063523;28;20052;-66
2022/10/23 05:10:53;;;;;;;;;;;11.30;99.90;;;;;;5064042;28;20037;-64
2022/10/23 05:13:19;;;;;;;9.80;1.70;;;11.40;99.90;;;;;;5063186;28;20015;-66
2022/10/23 05:15:51;;;;;;;;;;;11.50;99.90;;;;;;5069337;28;20052;-66
2022/10/23 05:18:31;;;;;;;4.57;2.20;;;11.60;99.90;;;;;;5056655;28;19916;-66
2022/10/23 05:21:07;;;;;;;43.35;13.25;;;11.60;99.90;;;;;;5061782;28;20040;-66
2022/10/23 05:23:35;;;;;;;16.52;4.82;;;11.60;99.90;;;;;;5062591;28;20040;-67
2022/10/23 05:26:02;;;;;;;9.45;2.83;;;11.60;99.90;;;;;;5072719;28;20045;-66
2022/10/23 05:28:28;;;;;;;7.82;1.67;;;11.70;99.90;;;;;;5061168;28;20633;-67
2022/10/23 05:30:54;;;;;;;;;;;11.60;99.90;;;;;;5062630;28;20040;-66
2022/10/23 05:33:19;;;;;;;5.10;1.48;;;11.70;99.90;;;;;;5061647;28;20419;-66
2022/10/23 05:35:45;;;;;;;;;;;11.70;99.90;;;;;;5066477;28;20037;-65
2022/10/23 05:38:11;;;;;;;5.85;1.40;;;11.60;99.90;;;;;;5059158;28;19916;-66
2022/10/23 05:40:37;;;;;;;6.57;1.92;;;11.60;99.90;;;;;;5065246;28;20076;-65
2022/10/23 05:43:03;;;;;;;;;;;11.60;99.90;;;;;;5060505;28;20570;-66
2022/10/23 05:45:28;;;;;;;6.88;1.60;;;11.60;99.90;;;;;;5065087;28;19931;-66
2022/10/23 05:47:54;;;;;;;;;;;11.60;99.90;;;;;;5060277;28;20040;-66
2022/10/23 05:50:19;;;;;;;4.78;1.40;;;11.60;99.90;;;;;;5064081;28;19959;-66
2022/10/23 05:52:46;;;;;;;;;;;11.50;99.90;;;;;;5061042;28;20059;-66
2022/10/23 05:55:12;;;;;;;7.93;1.88;;;11.60;99.90;;;;;;5064920;28;19920;-66
2022/10/23 05:57:37;;;;;;;;;;;11.60;99.90;;;;;;5058772;28;20047;-67
2022/10/23 06:00:04;;;;;;;5.75;1.60;;;11.60;99.90;;;;;;5061587;28;20470;-65
2022/10/23 06:02:30;;;;;;;4.78;1.30;;;11.50;99.90;;;;;;5060942;28;20103;-65
2022/10/23 06:04:55;;;;;;;;;;;11.50;99.90;;;;;;5064802;28;20060;-67
2022/10/23 06:07:25;;;;;;;2.42;0.90;;;11.50;99.90;;;;;;5063951;28;19924;-66
2022/10/23 06:09:51;;;;;;;4.10;1.17;;;11.50;99.90;;;;;;5063166;28;20135;-68
2022/10/23 06:12:18;;;;;;;10.80;1.70;;;11.50;99.90;;;;;;5062814;28;20045;-66
2022/10/23 06:14:44;;;;;;;9.70;1.40;;;11.50;99.90;;;;;;5062081;28;20150;-70
2022/10/23 06:17:09;;;;;;;;;;;11.50;99.90;;;;;;5063390;28;20521;-69
2022/10/23 06:19:35;;;;;;;5.82;1.42;;;11.50;99.90;;;;;;5062505;28;19920;-68
2022/10/23 06:22:00;;;;;;;;;;;11.50;99.90;;;;;;5062009;28;20435;-65
2022/10/23 06:24:26;;;;;;;6.28;1.00;;;11.50;99.90;;;;;;5060267;28;19979;-67
2022/10/23 06:26:51;;;;;;;;;;;11.50;99.90;;;;;;5062814;28;20053;-70
2022/10/23 06:29:17;;;;;;;11.00;2.40;;;11.50;99.90;;;;;;5061867;28;19981;-67
2022/10/23 06:31:42;;;;;;;;;;;11.50;99.90;;;;;;5061858;28;20123;-66
2022/10/23 06:34:10;;;;;;;3.20;1.13;;;11.50;99.90;;;;;;5061823;28;19917;-67
2022/10/23 06:36:36;;;;;;;10.75;1.70;;;11.50;99.90;;;;;;5063906;28;20067;-66
2022/10/23 06:39:03;;;;;;;6.22;1.20;;;11.50;99.90;;;;;;5061309;28;20051;-66
2022/10/23 06:41:28;;;;;;;7.90;1.77;;;11.50;99.90;;;;;;5063317;28;20439;-68
2022/10/23 06:43:54;;;;;;;;;;;11.50;99.90;;;;;;5061051;28;20039;-69
2022/10/23 06:46:21;;;;;;;7.80;1.58;;;11.50;99.90;;;;;;5066293;28;19920;-64
2022/10/23 06:48:47;;;;;;;6.93;1.50;;;11.50;99.90;;;;;;5059896;28;20047;-68
2022/10/23 06:51:16;;;;;;;10.90;1.15;;;11.60;99.90;;;;;;5072753;28;20036;-67
2022/10/23 06:53:42;;;;;;;4.55;1.10;;;11.50;99.90;;;;;;5059353;28;20044;-67
2022/10/23 06:56:08;;;;;;;3.88;1.20;;;11.50;99.90;;;;;;5064087;28;20044;-69
2022/10/23 06:58:36;;;;;;;10.73;1.20;;;11.50;99.90;;;;;;5060297;28;20052;-69
2022/10/23 07:01:04;;;;;;;8.73;1.48;;;11.60;99.90;;;;;;5061040;28;20036;-68
2022/10/23 07:03:30;;;;;;;5.13;1.52;;;11.60;99.90;;;;;;5059742;28;20040;-68
2022/10/23 07:05:58;;;;;;;;;;;11.70;99.90;;;;;;5064701;28;20502;-67
2022/10/23 07:08:24;;;;;;;7.50;1.20;;;11.70;99.90;;;;;;5061370;28;19916;-67
2022/10/23 07:10:50;;;;;;;;;;;11.80;99.90;;;;;;5061985;28;20045;-67
2022/10/23 07:13:16;;;;;;;6.82;1.50;;;11.90;99.90;;;;;;5060021;28;21573;-68
2022/10/23 07:15:41;;;;;;;3.85;1.30;;;12.00;99.90;;;;;;5067360;28;20592;-70
2022/10/23 07:18:13;;;;;;;;;;;12.00;99.90;;;;;;5069819;28;20044;-70
2022/10/23 07:20:42;;;;;;;3.67;1.00;;;12.10;99.90;;;;;;5083304;28;20010;-68
2022/10/23 07:23:10;;;;;;;4.95;1.38;;;12.30;99.90;;;;;;5057349;28;20048;-68
2022/10/23 07:25:36;;;;;;;4.60;1.10;;;12.40;99.90;;;;;;5064988;28;20127;-69
2022/10/23 07:28:03;;;;;;;7.68;1.45;;;12.60;99.90;;;;;;5062620;28;20079;-69
2022/10/23 07:30:30;;;;;;;9.30;1.23;;;12.80;99.90;;;;;;5069512;28;20048;-68
2022/10/23 07:32:55;;;;;;;4.65;1.30;;;12.90;99.90;;;;;;5066689;28;20046;-68
2022/10/23 07:35:21;;;;;;;;;;;13.10;99.90;;;;;;5061041;28;20404;-69
2022/10/23 07:37:47;;;;;;;4.50;1.17;;;13.20;99.90;;;;;;5064294;28;19920;-68
2022/10/23 07:40:13;;;;;;;;;;;13.30;99.90;;;;;;5065518;28;20036;-68
2022/10/23 07:42:39;;;;;;;7.13;1.23;;;13.40;99.90;;;;;;5059416;28;20000;-68
2022/10/23 07:45:06;;;;;;;;;;;13.50;99.90;;;;;;5069370;28;20519;-68
2022/10/23 07:47:32;;;;;;;5.88;1.33;;;13.60;99.90;;;;;;5065471;28;19966;-68
2022/10/23 07:49:58;;;;;;;3.17;1.27;;;13.60;99.90;;;;;;5058217;28;20326;-68
2022/10/23 07:52:23;;;;;;;;;;;13.60;99.90;;;;;;5064013;28;20484;-70
2022/10/23 07:54:52;;;;;;;5.13;1.20;;;13.60;99.90;;;;;;5068148;28;19981;-68
2022/10/23 07:57:19;;;;;;;9.07;1.45;;;13.60;99.90;;;;;;5054691;28;20536;-69
2022/10/23 07:59:45;;;;;;;7.53;1.25;;;13.70;99.90;;;;;;5061273;28;20097;-67
2022/10/23 08:02:11;;;;;;;;;;;13.70;99.90;;;;;;5065084;28;20100;-68
2022/10/23 08:04:37;;;;;;;6.22;1.00;;;13.80;99.90;;;;;;5066793;28;19917;-69
2022/10/23 08:07:03;;;;;;;6.03;1.15;;;13.80;99.90;;;;;;5062167;28;20044;-68
2022/10/23 08:09:29;;;;;;;;;;;13.90;99.90;;;;;;5067913;28;20041;-68
2022/10/23 08:11:55;;;;;;;1.50;1.00;;;13.90;99.90;;;;;;5058205;28;19921;-68
2022/10/23 08:14:20;;;;;;;;;;;13.90;99.90;;;;;;5080718;28;20444;-69
2022/10/23 08:16:46;;;;;;;7.13;1.38;;;13.90;99.90;;;;;;5079332;28;20006;-69
2022/10/23 08:19:12;;;;;;;;;;;13.90;99.90;;;;;;5070032;28;20040;-68
2022/10/23 08:21:38;;;;;;;6.40;1.17;;;13.90;99.90;;;;;;5079010;28;19916;-68
2022/10/23 08:24:03;;;;;;;;;;;13.90;99.90;;;;;;5059521;28;20461;-68
2022/10/23 08:26:29;;;;;;;6.40;1.50;;;13.90;99.90;;;;;;5067596;28;19925;-68
2022/10/23 08:28:57;;;;;;;;;;;13.90;99.90;;;;;;5073140;28;20046;-68
2022/10/23 08:31:23;;;;;;;6.38;1.33;;;14.00;99.90;;;;;;5067365;28;19943;-68
2022/10/23 08:33:49;;;;;;;2.70;1.00;;;14.00;99.90;;;;;;5060820;28;20068;-69
2022/10/23 08:36:21;;;;;;;;;;;14.00;99.90;;;;;;5051651;28;20133;-69
2022/10/23 08:38:47;;;;;;;4.15;1.20;;;14.10;99.90;;;;;;5065447;28;19920;-68
2022/10/23 08:41:22;;;;;;;6.22;1.02;;;14.20;99.90;;;;;;5066546;28;20048;-69
2022/10/23 08:43:53;;;;;;;6.40;1.35;;;14.20;99.90;;;;;;5066932;28;20102;-68
2022/10/23 08:46:26;;;;;;;3.75;0.95;;;14.30;99.90;;;;;;5051353;28;20795;-68
2022/10/23 08:49:00;;;;;;;1.55;0.95;;;14.30;99.90;;;;;;5060241;28;20037;-68
2022/10/23 08:51:39;;;;;;;6.20;1.30;;;14.40;99.90;;;;;;5063679;28;20043;-69
2022/10/23 08:54:14;;;;;;;2.08;1.13;;;14.40;99.90;;;;;;5061244;28;20048;-68
2022/10/23 08:56:50;;;;;;;1.80;0.73;;;14.50;99.90;;;;;;5065299;28;20526;-68
2022/10/23 08:59:21;;;;;;;8.65;1.10;;;14.60;99.90;;;;;;5063579;28;20040;-68
2022/10/23 09:01:54;;;;;;;4.22;1.00;;;14.60;99.90;;;;;;5062006;28;20044;-71
2022/10/23 09:04:20;;;;;;;5.15;2.05;;;14.70;99.90;;;;;;5059937;28;20033;-70
2022/10/23 09:06:45;;;;;;;;;;;14.70;99.90;;;;;;5065131;28;20105;-70
2022/10/23 09:09:33;;;;;;;6.97;1.05;;;14.70;99.90;;;;;;5063229;28;19969;-70
2022/10/23 09:12:21;;;;;;;5.65;1.13;;;14.70;99.90;;;;;;5063926;28;20036;-70
2022/10/23 09:15:02;;;;;;;3.88;1.30;;;14.70;99.90;;;;;;5064448;28;20043;-70
2022/10/23 09:17:37;;;;;;;4.35;1.10;;;14.70;99.90;;;;;;5058378;28;20774;-69
2022/10/23 09:20:20;;;;;;;6.03;1.45;;;14.70;99.90;;;;;;5064024;28;20059;-68
2022/10/23 09:22:53;;;;;;;4.47;1.00;;;14.80;99.90;;;;;;5056568;28;20111;-68
2022/10/23 09:25:35;;;;;;;6.97;1.13;;;14.70;99.90;;;;;;5060458;28;20054;-68
2022/10/23 09:28:01;;;;;;;5.28;1.30;;;14.80;99.90;;;;;;5060697;28;20409;-68
2022/10/23 09:30:32;;;;;;;6.47;1.30;;;14.80;99.90;;;;;;5059235;28;20047;-69
2022/10/23 09:32:59;;;;;;;3.85;1.10;;;14.80;99.90;;;;;;5061987;28;20223;-69
2022/10/23 09:35:28;;;;;;;1.98;0.90;;;14.90;99.90;;;;;;5059356;28;20037;-70
2022/10/23 09:37:54;;;;;;;4.47;0.90;;;15.00;99.90;;;;;;5054603;28;20041;-69
2022/10/23 09:40:23;;;;;;;4.00;1.15;;;15.20;99.90;;;;;;5064657;28;20075;-69
2022/10/23 09:42:55;;;;;;;2.78;0.85;;;15.40;99.90;;;;;;5064338;28;20037;-68
2022/10/23 09:45:28;;;;;;;3.05;1.20;;;15.40;99.90;;;;;;5060214;28;20041;-68
2022/10/23 09:48:23;;;;;;;4.30;0.90;;;15.50;99.90;;;;;;5063366;28;20157;-68
2022/10/23 09:50:51;;;;;;;8.35;1.10;;;15.60;99.90;;;;;;5061158;28;20055;-70
2022/10/23 09:53:40;;;;;;;4.53;1.10;;;15.70;99.90;;;;;;5055765;28;20029;-69
2022/10/23 09:56:26;;;;;;;5.22;1.25;;;15.90;99.90;;;;;;5074132;28;20063;-68
2022/10/23 09:59:02;;;;;;;5.95;0.93;;;16.10;99.90;;;;;;5067315;28;20056;-69
2022/10/23 10:01:35;;;;;;;3.75;1.20;;;16.30;99.90;;;;;;5059320;28;20097;-67
2022/10/23 10:04:01;;;;;;;5.13;1.00;;;16.40;99.90;;;;;;5069652;28;20617;-67
2022/10/23 10:06:32;;;;;;;3.83;1.05;;;16.40;99.90;;;;;;5059925;28;20032;-66
2022/10/23 10:09:00;;;;;;;4.38;1.30;;;16.50;99.90;;;;;;5072384;28;20128;-68
2022/10/23 10:11:42;;;;;;;6.93;1.60;;;16.40;99.90;;;;;;5069945;28;20048;-68
2022/10/23 10:14:29;;;;;;;6.22;1.20;;;16.50;99.90;;;;;;5068464;28;20036;-68
2022/10/23 10:17:39;;;;;;;5.75;1.85;;;16.70;99.90;;;;;;5069269;28;20044;-68
2022/10/23 10:20:16;;;;;;;8.20;1.23;;;16.70;99.90;;;;;;5058279;28;20136;-68
2022/10/23 10:22:52;;;;;;;5.40;1.38;;;16.80;99.90;;;;;;5053132;28;20097;-69
2022/10/23 10:25:41;;;;;;;5.22;1.33;;;16.80;99.90;;;;;;5059741;28;20097;-68
2022/10/23 10:28:42;;;;;;;6.85;0.88;;;16.70;99.90;;;;;;5055790;28;20689;-68
2022/10/23 10:31:37;;;;;;;3.75;1.13;;;16.60;99.90;;;;;;5059334;28;20037;-68
2022/10/23 10:34:24;;;;;;;4.68;0.82;;;16.50;99.90;;;;;;5056027;28;20075;-68
2022/10/23 10:36:54;;;;;;;5.85;1.83;;;16.40;99.90;;;;;;5059535;28;20043;-69
2022/10/23 10:39:34;;;;;;;2.60;0.93;;;16.40;99.90;;;;;;5050930;28;20040;-70
2022/10/23 10:42:37;;;;;;;4.75;0.93;;;16.30;99.90;;;;;;5052548;28;20037;-72
2022/10/23 10:45:12;;;;;;;5.00;0.80;;;16.20;99.90;;;;;;5068753;28;20072;-69
2022/10/23 10:47:46;;;;;;;4.68;0.63;;;16.20;99.90;;;;;;5056982;28;20052;-72
2022/10/23 10:50:28;;;;;;;1.50;1.05;;;16.30;99.90;;;;;;5063155;28;20070;-68
2022/10/23 10:53:04;;;;;;;11.77;1.48;;;16.20;99.90;;;;;;5058359;28;20492;-69
2022/10/23 10:55:38;;;;;;;8.25;1.00;;;16.20;99.90;;;;;;5061737;28;20038;-69
2022/10/23 10:58:22;;;;;;;3.97;1.00;;;16.00;99.90;;;;;;5057503;28;20465;-70
2022/10/23 11:00:53;;;;;;;4.70;0.73;;;15.90;99.90;;;;;;5054076;28;20040;-68
2022/10/23 11:03:33;;;;;;;4.03;0.90;;;16.00;99.90;;;;;;5053110;28;20040;-69
2022/10/23 11:06:01;;;;;;;4.30;1.23;;;16.00;99.90;;;;;;5063374;28;20036;-69
2022/10/23 11:08:37;;;;;;;3.92;0.90;;;16.10;99.90;;;;;;5061949;28;20465;-70
2022/10/23 11:11:10;;;;;;;5.68;1.10;;;16.00;99.90;;;;;;5061480;28;20036;-70
2022/10/23 11:13:39;;;;;;;4.40;0.88;;;16.00;99.90;;;;;;5059235;28;20044;-68
2022/10/23 11:16:18;;;;;;;2.97;0.70;;;16.00;99.90;;;;;;5063067;28;20063;-69
2022/10/23 11:18:53;;;;;;;6.03;1.02;;;16.00;99.90;;;;;;5058290;28;20656;-69
2022/10/23 11:21:46;;;;;;;5.18;0.93;;;15.90;99.90;;;;;;5054615;28;20044;-69
2022/10/23 11:24:51;;;;;;;4.55;0.88;;;15.80;99.90;;;;;;5057087;28;20044;-68
2022/10/23 11:27:38;;;;;;;3.40;1.10;;;15.80;99.90;;;;;;5048378;28;20051;-70
2022/10/23 11:30:24;;;;;;;6.05;1.00;;;15.80;99.90;;;;;;5061090;28;20098;-70
2022/10/23 11:33:14;;;;;;;3.35;1.10;;;15.70;99.90;;;;;;5061695;28;20040;-70
2022/10/23 11:35:49;;;;;;;7.60;1.63;;;15.70;99.90;;;;;;5059982;28;20090;-70
2022/10/23 11:38:28;;;;;;;4.15;1.08;;;15.60;99.90;;;;;;5059653;28;20029;-69
2022/10/23 11:40:58;;;;;;;3.10;1.30;;;15.50;99.90;;;;;;5062604;28;20555;-69
2022/10/23 11:43:34;;;;;;;4.47;1.50;;;15.40;99.90;;;;;;5059406;28;20048;-68
2022/10/23 11:46:21;;;;;;;8.10;1.40;;;15.30;99.90;;;;;;5053483;28;20049;-69
2022/10/23 11:48:48;;;;;;;6.97;1.30;;;15.30;99.90;;;;;;5058152;28;20455;-69
2022/10/23 11:51:34;;;;;;;3.15;1.20;;;15.20;99.90;;;;;;5062346;28;20040;-68
2022/10/23 11:54:21;;;;;;;7.80;1.00;;;15.10;99.90;;;;;;5060719;28;20727;-69
2022/10/23 11:57:10;;;;;;;1.73;1.10;;;15.00;99.90;;;;;;5062038;28;20044;-69
2022/10/23 11:59:48;;;;;;;6.85;1.20;;;15.00;99.90;;;;;;5057195;28;20051;-68
2022/10/23 12:02:37;;;;;;;3.70;1.20;;;15.00;99.90;;;;;;5063640;28;20040;-69
2022/10/23 12:05:24;;;;;;;2.50;1.10;;;14.90;99.90;;;;;;5076812;28;20581;-69
2022/10/23 12:07:58;;;;;;;3.47;1.20;;;15.00;99.90;;;;;;5060563;28;20045;-70
2022/10/23 12:10:34;;;;;;;4.20;1.40;;;15.00;99.90;;;;;;5060752;28;20055;-68
2022/10/23 12:13:03;;;;;;;6.30;1.45;;;15.00;99.90;;;;;;5061250;28;20044;-69
2022/10/23 12:15:30;;;;;;;4.35;1.30;;;15.00;99.90;;;;;;5069139;28;20563;-69
2022/10/23 12:18:12;;;;;;;3.80;1.33;;;14.90;99.90;;;;;;5065278;28;20063;-70
2022/10/23 12:20:48;;;;;;;7.97;1.38;;;14.90;99.90;;;;;;5065562;28;20448;-69
2022/10/23 12:23:26;;;;;;;4.60;1.42;;;14.80;99.90;;;;;;5071512;28;20044;-69
2022/10/23 12:26:12;;;;;;;3.05;1.05;;;14.80;99.90;;;;;;5083129;28;20052;-69
2022/10/23 12:28:57;;;;;;;3.80;1.00;;;14.80;99.90;;;;;;5071117;28;20044;-69
2022/10/23 12:31:50;;;;;;;5.45;1.52;;;14.80;99.90;;;;;;5060786;28;20098;-70
2022/10/23 12:34:22;;;;;;;3.28;1.60;;;14.80;99.90;;;;;;5066211;28;20517;-70
2022/10/23 12:37:03;;;;;;;6.93;0.98;;;14.70;99.90;;;;;;5064883;28;20052;-69
2022/10/23 12:39:37;;;;;;;2.70;1.00;;;14.70;99.90;;;;;;5064619;28;20040;-69
2022/10/23 12:42:14;;;;;;;8.35;1.23;;;14.70;99.90;;;;;;5064835;28;20045;-73
2022/10/23 12:44:39;;;;;;;6.95;1.30;;;14.70;99.90;;;;;;5059522;28;20044;-70
2022/10/23 12:47:05;;;;;;;;;;;14.70;99.90;;;;;;5064304;28;20111;-69
2022/10/23 12:49:33;;;;;;;3.30;0.90;;;14.70;99.90;;;;;;5069424;28;20410;-68
2022/10/23 12:52:20;;;;;;;3.25;0.68;;;14.80;99.90;;;;;;5073497;28;20037;-69
2022/10/23 12:54:46;;;;;;;5.53;1.40;;;14.80;99.90;;;;;;5060751;28;20129;-69
2022/10/23 12:57:20;;;;;;;;;;;14.90;99.90;;;;;;5063102;28;20052;-69
2022/10/23 12:59:47;;;;;;;5.30;0.90;;;14.90;99.90;;;;;;5066121;28;19962;-71
2022/10/23 13:02:21;;;;;;;3.05;0.77;;;15.10;99.90;;;;;;5061827;28;20037;-71
2022/10/23 13:04:49;;;;;;;3.97;1.13;;;15.20;99.90;;;;;;5065472;28;20263;-68
2022/10/23 13:07:19;;;;;;;3.72;0.90;;;15.20;99.90;;;;;;5055520;28;20044;-69
2022/10/23 13:09:46;;;;;;;3.67;0.80;;;15.20;99.90;;;;;;5064743;28;20127;-69
2022/10/23 13:12:26;;;;;;;5.43;0.95;;;15.20;99.90;;;;;;5063266;28;20081;-69
2022/10/23 13:15:12;;;;;;;3.47;0.68;;;15.30;99.90;;;;;;5075306;28;20515;-69
2022/10/23 13:17:46;;;;;;;3.97;0.47;;;15.30;99.90;;;;;;5067781;28;20032;-68
2022/10/23 13:20:59;;;;;;;7.93;0.68;;;15.40;99.90;;;;;;5063470;28;20047;-70
2022/10/23 13:23:31;;;;;;;4.50;0.85;;;15.50;99.90;;;;;;5049456;28;20730;-70
2022/10/23 13:26:05;;;;;;;2.15;1.13;;;15.70;99.90;;;;;;5062322;28;20527;-69